createdAt,value
2022-12-05T00:01:26.118Z,3.10
2022-12-05T00:03:55.802Z,3.10
2022-12-05T00:06:24.185Z,3.10
2022-12-05T00:08:51.369Z,3.10
2022-12-05T00:11:24.283Z,3.20
2022-12-05T00:13:53.413Z,3.10
2022-12-05T00:16:22.176Z,3.10
2022-12-05T00:18:49.566Z,3.10
2022-12-05T00:21:19.069Z,3.20
2022-12-05T00:23:46.036Z,3.10
2022-12-05T00:26:13.067Z,3.20
2022-12-05T00:28:40.623Z,3.20
2022-12-05T00:31:13.667Z,3.20
2022-12-05T00:33:40.527Z,3.10
2022-12-05T00:36:10.646Z,3.20
2022-12-05T00:38:38.252Z,3.10
2022-12-05T00:41:07.461Z,3.20
2022-12-05T00:43:34.743Z,3.20
2022-12-05T00:46:06.943Z,3.20
2022-12-05T00:48:34.385Z,3.20
2022-12-05T00:51:10.528Z,3.20
2022-12-05T00:53:38.241Z,3.20
2022-12-05T00:56:07.942Z,3.20
2022-12-05T00:58:35.394Z,3.20
2022-12-05T01:01:14.864Z,3.20
2022-12-05T01:03:42.796Z,3.20
2022-12-05T01:06:10.620Z,3.20
2022-12-05T01:08:37.746Z,3.20
2022-12-05T01:11:06.558Z,3.20
2022-12-05T01:13:34.293Z,3.20
2022-12-05T01:16:01.622Z,3.20
2022-12-05T01:18:29.386Z,3.20
2022-12-05T01:20:56.358Z,3.20
2022-12-05T01:23:23.503Z,3.20
2022-12-05T01:25:53.261Z,3.30
2022-12-05T01:28:20.574Z,3.20
2022-12-05T01:30:49.551Z,3.30
2022-12-05T01:33:17.563Z,3.30
2022-12-05T01:35:44.984Z,3.20
2022-12-05T01:38:13.338Z,3.20
2022-12-05T01:40:43.875Z,3.20
2022-12-05T01:43:16.164Z,3.20
2022-12-05T01:45:45.640Z,3.20
2022-12-05T01:48:19.984Z,3.20
2022-12-05T01:50:47.959Z,3.20
2022-12-05T01:53:16.247Z,3.20
2022-12-05T01:55:44.124Z,3.20
2022-12-05T01:58:11.588Z,3.10
2022-12-05T02:00:42.513Z,3.20
2022-12-05T02:03:15.077Z,3.20
2022-12-05T02:05:42.183Z,3.20
2022-12-05T02:08:10.977Z,3.20
2022-12-05T02:10:43.063Z,3.20
2022-12-05T02:13:26.847Z,3.20
2022-12-05T02:16:22.984Z,3.20
2022-12-05T02:19:22.212Z,3.20
2022-12-05T02:22:04.027Z,3.20
2022-12-05T02:24:55.464Z,3.20
2022-12-05T02:27:40.875Z,3.20
2022-12-05T02:30:12.154Z,3.20
2022-12-05T02:33:01.680Z,3.20
2022-12-05T02:35:50.443Z,3.20
2022-12-05T02:38:32.213Z,3.20
2022-12-05T02:41:24.200Z,3.20
2022-12-05T02:44:09.111Z,3.20
2022-12-05T02:46:40.471Z,3.20
2022-12-05T02:49:22.024Z,3.20
2022-12-05T02:51:53.152Z,3.20
2022-12-05T02:54:24.361Z,3.20
2022-12-05T02:56:53.390Z,3.20
2022-12-05T02:59:23.591Z,3.20
2022-12-05T03:01:51.568Z,3.20
2022-12-05T03:04:21.937Z,3.20
2022-12-05T03:07:14.299Z,3.20
2022-12-05T03:09:47.249Z,3.30
2022-12-05T03:12:28.308Z,3.30
2022-12-05T03:15:05.227Z,3.20
2022-12-05T03:17:53.031Z,3.20
2022-12-05T03:20:32.106Z,3.20
2022-12-05T03:23:23.694Z,3.30
2022-12-05T03:26:28.621Z,3.20
2022-12-05T03:29:27.597Z,3.30
2022-12-05T03:32:07.881Z,3.30
2022-12-05T03:34:42.276Z,3.30
2022-12-05T03:37:33.249Z,3.20
2022-12-05T03:40:23.436Z,3.30
2022-12-05T03:43:16.041Z,3.30
2022-12-05T03:46:04.462Z,3.30
2022-12-05T03:48:56.084Z,3.30
2022-12-05T03:51:28.661Z,3.30
2022-12-05T03:54:21.138Z,3.20
2022-12-05T03:57:13.216Z,3.30
2022-12-05T04:00:08.626Z,3.30
2022-12-05T04:03:04.511Z,3.30
2022-12-05T04:05:51.495Z,3.30
2022-12-05T04:08:36.582Z,3.30
2022-12-05T04:11:09.244Z,3.30
2022-12-05T04:13:48.171Z,3.30
2022-12-05T04:16:39.194Z,3.30
2022-12-05T04:19:21.520Z,3.20
2022-12-05T04:21:53.927Z,3.30
2022-12-05T04:24:43.839Z,3.30
2022-12-05T04:27:21.300Z,3.30
2022-12-05T04:30:02.233Z,3.30
2022-12-05T04:32:38.992Z,3.30
2022-12-05T04:35:13.201Z,3.30
2022-12-05T04:37:45.049Z,3.30
2022-12-05T04:40:24.868Z,3.30
2022-12-05T04:42:55.399Z,3.30
2022-12-05T04:45:24.705Z,3.30
2022-12-05T04:47:57.209Z,3.30
2022-12-05T04:50:26.634Z,3.30
2022-12-05T04:52:56.326Z,3.30
2022-12-05T04:55:29.816Z,3.30
2022-12-05T04:58:21.406Z,3.30
2022-12-05T05:00:57.405Z,3.40
2022-12-05T05:03:45.880Z,3.30
2022-12-05T05:06:14.118Z,3.30
2022-12-05T05:08:51.583Z,3.40
2022-12-05T05:11:30.298Z,3.40
2022-12-05T05:13:57.315Z,3.30
2022-12-05T05:16:27.567Z,3.30
2022-12-05T05:18:54.857Z,3.30
2022-12-05T05:21:27.750Z,3.30
2022-12-05T05:23:55.566Z,3.40
2022-12-05T05:26:23.499Z,3.40
2022-12-05T05:28:51.646Z,3.40
2022-12-05T05:31:20.372Z,3.40
2022-12-05T05:33:54.693Z,3.40
2022-12-05T05:36:23.874Z,3.40
2022-12-05T05:38:53.426Z,3.40
2022-12-05T05:41:29.208Z,3.40
2022-12-05T05:43:56.917Z,3.40
2022-12-05T05:46:26.381Z,3.40
2022-12-05T05:48:54.580Z,3.40
2022-12-05T05:51:21.875Z,3.40
2022-12-05T05:53:49.762Z,3.40
2022-12-05T05:56:21.420Z,3.40
2022-12-05T05:58:54.830Z,3.40
2022-12-05T06:01:22.017Z,3.40
2022-12-05T06:03:50.989Z,3.40
2022-12-05T06:06:18.750Z,3.40
2022-12-05T06:08:46.242Z,3.40
2022-12-05T06:11:25.401Z,3.40
2022-12-05T06:13:58.211Z,3.40
2022-12-05T06:16:25.724Z,3.40
2022-12-05T06:18:53.442Z,3.40
2022-12-05T06:21:21.396Z,3.40
2022-12-05T06:23:49.256Z,3.40
2022-12-05T06:26:18.662Z,3.40
2022-12-05T06:28:47.146Z,3.40
2022-12-05T06:31:20.258Z,3.40
2022-12-05T06:33:47.614Z,3.40
2022-12-05T06:36:17.626Z,3.40
2022-12-05T06:38:44.856Z,3.40
2022-12-05T06:41:16.207Z,3.40
2022-12-05T06:43:43.763Z,3.40
2022-12-05T06:46:13.043Z,3.40
2022-12-05T06:48:40.489Z,3.40
2022-12-05T06:51:11.224Z,3.40
2022-12-05T06:53:39.182Z,3.40
2022-12-05T06:56:11.493Z,3.40
2022-12-05T06:58:38.541Z,3.40
2022-12-05T07:01:24.058Z,3.40
2022-12-05T07:03:51.388Z,3.40
2022-12-05T07:06:18.555Z,3.40
2022-12-05T07:08:45.558Z,3.40
2022-12-05T07:11:12.753Z,3.40
2022-12-05T07:13:40.198Z,3.40
2022-12-05T07:16:08.550Z,3.50
2022-12-05T07:18:36.743Z,3.50
2022-12-05T07:21:14.518Z,3.40
2022-12-05T07:23:42.568Z,3.50
2022-12-05T07:26:13.473Z,3.50
2022-12-05T07:28:40.486Z,3.50
2022-12-05T07:31:10.309Z,3.50
2022-12-05T07:33:38.488Z,3.50
2022-12-05T07:36:09.026Z,3.50
2022-12-05T07:38:36.810Z,3.40
2022-12-05T07:41:13.069Z,3.50
2022-12-05T07:43:50.048Z,3.50
2022-12-05T07:46:17.619Z,3.50
2022-12-05T07:48:44.752Z,3.50
2022-12-05T07:51:12.084Z,3.50
2022-12-05T07:53:39.658Z,3.50
2022-12-05T07:56:08.284Z,3.50
2022-12-05T07:58:36.027Z,3.50
2022-12-05T08:01:14.469Z,3.60
2022-12-05T08:03:41.860Z,3.60
2022-12-05T08:06:15.016Z,3.50
2022-12-05T08:08:42.286Z,3.60
2022-12-05T08:11:12.152Z,3.60
2022-12-05T08:13:39.514Z,3.60
2022-12-05T08:16:15.020Z,3.50
2022-12-05T08:18:42.870Z,3.50
2022-12-05T08:21:15.479Z,3.60
2022-12-05T08:23:43.315Z,3.60
2022-12-05T08:26:20.347Z,3.60
2022-12-05T08:28:51.240Z,3.50
2022-12-05T08:31:20.060Z,3.60
2022-12-05T08:33:47.107Z,3.50
2022-12-05T08:36:15.859Z,3.60
2022-12-05T08:38:44.143Z,3.60
2022-12-05T08:41:13.889Z,3.60
2022-12-05T08:43:41.618Z,3.60
2022-12-05T08:46:09.901Z,3.60
2022-12-05T08:48:37.170Z,3.60
2022-12-05T08:51:09.965Z,3.60
2022-12-05T08:53:43.816Z,3.60
2022-12-05T08:56:11.888Z,3.60
2022-12-05T08:58:39.132Z,3.60
2022-12-05T09:01:12.080Z,3.60
2022-12-05T09:03:46.071Z,3.60
2022-12-05T09:06:21.140Z,3.60
2022-12-05T09:08:49.451Z,3.60
2022-12-05T09:11:23.883Z,3.60
2022-12-05T09:13:52.727Z,3.70
2022-12-05T09:16:36.985Z,3.60
2022-12-05T09:19:18.540Z,3.60
2022-12-05T09:21:45.460Z,3.70
2022-12-05T09:24:14.351Z,3.70
2022-12-05T09:26:41.922Z,3.70
2022-12-05T09:29:15.794Z,3.70
2022-12-05T09:31:44.146Z,3.70
2022-12-05T09:34:11.130Z,3.70
2022-12-05T09:36:37.962Z,3.70
2022-12-05T09:39:06.386Z,3.70
2022-12-05T09:42:10.464Z,3.70
2022-12-05T09:44:46.117Z,3.70
2022-12-05T09:47:15.633Z,3.80
2022-12-05T09:49:51.298Z,3.80
2022-12-05T09:52:32.226Z,3.80
2022-12-05T09:55:10.619Z,3.80
2022-12-05T09:57:42.838Z,3.80
2022-12-05T10:00:10.805Z,3.80
2022-12-05T10:03:08.113Z,3.80
2022-12-05T10:05:42.923Z,3.70
2022-12-05T10:08:45.015Z,3.80
2022-12-05T10:11:21.625Z,3.80
2022-12-05T10:14:08.894Z,3.80
2022-12-05T10:16:49.736Z,3.80
2022-12-05T10:19:23.842Z,3.80
2022-12-05T10:22:20.410Z,3.80
2022-12-05T10:24:52.421Z,3.80
2022-12-05T10:27:39.581Z,3.90
2022-12-05T10:30:17.572Z,3.90
2022-12-05T10:33:01.031Z,3.90
2022-12-05T10:35:37.961Z,3.90
2022-12-05T10:38:09.878Z,3.90
2022-12-05T10:40:43.830Z,3.90
2022-12-05T10:43:14.363Z,3.90
2022-12-05T10:45:46.843Z,3.90
2022-12-05T10:48:17.010Z,3.90
2022-12-05T10:50:46.157Z,3.90
2022-12-05T10:53:18.421Z,3.90
2022-12-05T10:56:21.592Z,3.90
2022-12-05T10:58:34.649Z,3.90
2022-12-05T11:01:16.237Z,4.00
2022-12-05T11:03:43.877Z,4.00
2022-12-05T11:06:26.993Z,4.10
2022-12-05T11:09:18.148Z,4.20
2022-12-05T11:12:00.450Z,4.20
2022-12-05T11:14:28.620Z,4.30
2022-12-05T11:16:57.017Z,4.30
2022-12-05T11:19:35.976Z,4.30
2022-12-05T11:22:04.727Z,4.30
2022-12-05T11:24:35.067Z,4.30
2022-12-05T11:27:27.139Z,4.30
2022-12-05T11:29:59.251Z,4.20
2022-12-05T11:32:32.404Z,4.20
2022-12-05T11:35:09.377Z,4.20
2022-12-05T11:37:45.960Z,4.20
2022-12-05T11:40:26.708Z,4.10
2022-12-05T11:43:01.209Z,4.10
2022-12-05T11:45:59.312Z,4.20
2022-12-05T11:49:07.430Z,4.20
2022-12-05T11:51:39.326Z,4.10
2022-12-05T11:55:03.497Z,4.10
2022-12-05T11:57:33.389Z,4.10
2022-12-05T12:00:09.142Z,4.10
2022-12-05T12:03:14.967Z,4.20
2022-12-05T12:05:57.390Z,4.20
2022-12-05T12:08:29.837Z,4.10
2022-12-05T12:11:08.595Z,4.10
2022-12-05T12:13:57.076Z,4.10
2022-12-05T12:16:59.786Z,4.10
2022-12-05T12:19:52.219Z,4.10
2022-12-05T12:22:31.132Z,4.10
2022-12-05T12:25:21.528Z,4.10
2022-12-05T12:28:16.395Z,4.10
2022-12-05T12:30:57.056Z,4.10
2022-12-05T12:33:35.778Z,4.10
2022-12-05T12:36:32.286Z,4.10
2022-12-05T12:39:26.308Z,4.20
2022-12-05T12:42:07.903Z,4.20
2022-12-05T12:44:56.889Z,4.20
2022-12-05T12:47:29.863Z,4.20
2022-12-05T12:50:08.534Z,4.30
2022-12-05T12:52:58.251Z,4.30
2022-12-05T12:55:39.348Z,4.30
2022-12-05T12:58:33.665Z,4.30
2022-12-05T13:01:25.160Z,4.40
2022-12-05T13:03:56.799Z,4.30
2022-12-05T13:06:29.055Z,4.30
2022-12-05T13:09:03.199Z,4.40
2022-12-05T13:11:36.465Z,4.40
2022-12-05T13:14:09.403Z,4.40
2022-12-05T13:16:45.588Z,4.40
2022-12-05T13:19:23.771Z,4.40
2022-12-05T13:21:51.275Z,4.50
2022-12-05T13:24:22.144Z,4.40
2022-12-05T13:26:49.867Z,4.40
2022-12-05T13:29:48.726Z,4.40
2022-12-05T13:32:30.311Z,4.50
2022-12-05T13:35:39.558Z,4.40
2022-12-05T13:38:34.575Z,4.40
2022-12-05T13:41:19.883Z,4.40
2022-12-05T13:44:05.414Z,4.40
2022-12-05T13:46:36.994Z,4.40
2022-12-05T13:49:17.302Z,4.40
2022-12-05T13:51:45.816Z,4.40
2022-12-05T13:54:15.870Z,4.40
2022-12-05T13:56:47.216Z,4.40
2022-12-05T13:59:52.455Z,4.40
2022-12-05T14:02:47.019Z,4.40
2022-12-05T14:05:13.917Z,4.40
2022-12-05T14:07:47.234Z,4.40
2022-12-05T14:10:16.735Z,4.40
2022-12-05T14:12:55.857Z,4.40
2022-12-05T14:15:30.646Z,4.40
2022-12-05T14:18:05.805Z,4.40
2022-12-05T14:20:49.472Z,4.40
2022-12-05T14:23:50.093Z,4.40
2022-12-05T14:26:35.733Z,4.40
2022-12-05T14:29:20.206Z,4.50
2022-12-05T14:32:17.139Z,4.40
2022-12-05T14:34:57.091Z,4.40
2022-12-05T14:37:33.457Z,4.40
2022-12-05T14:40:03.068Z,4.50
2022-12-05T14:42:37.758Z,4.40
2022-12-05T14:45:29.489Z,4.40
2022-12-05T14:48:05.391Z,4.40
2022-12-05T14:50:45.666Z,4.40
2022-12-05T14:53:15.258Z,4.40
2022-12-05T14:55:46.289Z,4.40
2022-12-05T14:58:34.313Z,4.40
2022-12-05T15:01:07.176Z,4.40
2022-12-05T15:03:38.311Z,4.40
2022-12-05T15:06:11.006Z,4.40
2022-12-05T15:08:50.461Z,4.40
2022-12-05T15:11:29.562Z,4.40
2022-12-05T15:14:08.344Z,4.40
2022-12-05T15:16:42.920Z,4.40
2022-12-05T15:19:20.653Z,4.40
2022-12-05T15:21:56.229Z,4.40
2022-12-05T15:24:23.271Z,4.40
2022-12-05T15:26:54.063Z,4.50
2022-12-05T15:29:20.903Z,4.40
2022-12-05T15:32:10.800Z,4.40
2022-12-05T15:35:05.961Z,4.40
2022-12-05T15:37:46.538Z,4.40
2022-12-05T15:40:20.949Z,4.40
2022-12-05T15:42:53.206Z,4.50
2022-12-05T15:45:25.810Z,4.50
2022-12-05T15:48:08.145Z,4.40
2022-12-05T15:51:04.630Z,4.50
2022-12-05T15:53:47.209Z,4.40
2022-12-05T15:56:24.116Z,4.40
2022-12-05T15:59:05.648Z,4.40
2022-12-05T16:01:38.839Z,4.40
2022-12-05T16:04:29.179Z,4.40
2022-12-05T16:07:00.803Z,4.40
2022-12-05T16:09:32.444Z,4.50
2022-12-05T16:12:02.410Z,4.50
2022-12-05T16:17:40.810Z,4.40
2022-12-05T16:20:29.766Z,4.40
2022-12-05T16:23:00.705Z,4.50
2022-12-05T16:25:30.780Z,4.50
2022-12-05T16:27:58.996Z,4.40
2022-12-05T16:30:25.960Z,4.40
2022-12-05T16:33:02.317Z,4.50
2022-12-05T16:35:32.444Z,4.50
2022-12-05T16:38:13.003Z,4.50
2022-12-05T16:40:50.683Z,4.50
2022-12-05T16:43:33.041Z,4.50
2022-12-05T16:46:15.133Z,4.50
2022-12-05T16:48:50.173Z,4.40
2022-12-05T16:51:19.685Z,4.40
2022-12-05T16:53:54.570Z,4.40
2022-12-05T16:56:26.231Z,4.40
2022-12-05T16:58:53.119Z,4.40
2022-12-05T17:01:26.639Z,4.40
2022-12-05T17:03:55.526Z,4.40
2022-12-05T17:06:24.615Z,4.40
2022-12-05T17:08:52.712Z,4.40
2022-12-05T17:11:19.441Z,4.40
2022-12-05T17:13:48.363Z,4.40
2022-12-05T17:16:16.687Z,4.30
2022-12-05T17:18:43.875Z,4.30
2022-12-05T17:21:16.663Z,4.30
2022-12-05T17:23:48.080Z,4.30
2022-12-05T17:26:17.911Z,4.30
2022-12-05T17:28:45.368Z,4.30
2022-12-05T17:31:21.037Z,4.30
2022-12-05T17:33:49.408Z,4.40
2022-12-05T17:36:16.747Z,4.30
2022-12-05T17:38:44.376Z,4.30
2022-12-05T17:41:24.919Z,4.30
2022-12-05T17:44:01.395Z,4.30
2022-12-05T17:46:30.784Z,4.30
2022-12-05T17:48:57.915Z,4.30
2022-12-05T17:51:25.163Z,4.30
2022-12-05T17:53:53.118Z,4.30
2022-12-05T17:56:20.093Z,4.30
2022-12-05T17:58:47.038Z,4.20
2022-12-05T18:01:20.106Z,4.20
2022-12-05T18:03:48.193Z,4.20
2022-12-05T18:06:15.967Z,4.20
2022-12-05T18:08:44.897Z,4.20
2022-12-05T18:11:14.325Z,4.10
2022-12-05T18:13:41.187Z,4.20
2022-12-05T18:16:08.689Z,4.10
2022-12-05T18:18:35.765Z,4.10
2022-12-05T18:21:11.123Z,4.10
2022-12-05T18:23:39.174Z,4.00
2022-12-05T18:26:07.839Z,4.00
2022-12-05T18:28:37.213Z,4.00
2022-12-05T18:31:15.677Z,3.90
2022-12-05T18:33:44.237Z,3.90
2022-12-05T18:36:17.675Z,3.90
2022-12-05T18:38:53.609Z,3.90
2022-12-05T18:41:23.345Z,3.90
2022-12-05T18:43:50.715Z,3.90
2022-12-05T18:46:17.708Z,3.90
2022-12-05T18:48:47.662Z,3.80
2022-12-05T18:51:17.380Z,3.80
2022-12-05T18:53:51.596Z,3.80
2022-12-05T18:56:31.101Z,3.80
2022-12-05T18:59:04.122Z,3.80
2022-12-05T19:01:32.739Z,3.70
2022-12-05T19:04:01.607Z,3.70
2022-12-05T19:06:30.899Z,3.70
2022-12-05T19:09:00.278Z,3.70
2022-12-05T19:11:27.644Z,3.70
2022-12-05T19:13:56.426Z,3.60
2022-12-05T19:16:23.974Z,3.60
2022-12-05T19:18:57.568Z,3.60
2022-12-05T19:21:26.227Z,3.60
2022-12-05T19:23:53.643Z,3.60
2022-12-05T19:26:21.609Z,3.60
2022-12-05T19:28:48.917Z,3.60
2022-12-05T19:31:18.408Z,3.60
2022-12-05T19:33:48.225Z,3.60
2022-12-05T19:36:23.432Z,3.50
2022-12-05T19:38:52.050Z,3.60
2022-12-05T19:41:23.421Z,3.60
2022-12-05T19:43:50.629Z,3.50
2022-12-05T19:46:21.313Z,3.50
2022-12-05T19:48:48.590Z,3.50
2022-12-05T19:51:16.008Z,3.50
2022-12-05T19:53:44.003Z,3.40
2022-12-05T19:56:17.049Z,3.40
2022-12-05T19:58:44.387Z,3.50
2022-12-05T20:01:20.057Z,3.50
2022-12-05T20:03:49.578Z,3.50
2022-12-05T20:06:18.005Z,3.50
2022-12-05T20:08:45.744Z,3.40
2022-12-05T20:11:15.558Z,3.40
2022-12-05T20:13:47.435Z,3.40
2022-12-05T20:16:18.661Z,3.40
2022-12-05T20:18:45.919Z,3.40
2022-12-05T20:21:15.504Z,3.40
2022-12-05T20:23:42.457Z,3.40
2022-12-05T20:26:13.767Z,3.40
2022-12-05T20:28:40.562Z,3.40
2022-12-05T20:31:09.008Z,3.40
2022-12-05T20:33:37.123Z,3.40
2022-12-05T20:36:10.080Z,3.40
2022-12-05T20:38:37.383Z,3.40
2022-12-05T20:41:07.596Z,3.40
2022-12-05T20:43:35.667Z,3.30
2022-12-05T20:46:04.032Z,3.30
2022-12-05T20:48:31.045Z,3.30
2022-12-05T20:51:07.720Z,3.30
2022-12-05T20:53:36.566Z,3.30
2022-12-05T20:56:09.798Z,3.30
2022-12-05T20:58:37.199Z,3.30
2022-12-05T21:01:09.915Z,3.30
2022-12-05T21:03:39.264Z,3.30
2022-12-05T21:06:22.278Z,3.30
2022-12-05T21:08:49.918Z,3.20
2022-12-05T21:11:16.785Z,3.20
2022-12-05T21:13:43.967Z,3.20
2022-12-05T21:16:14.151Z,3.20
2022-12-05T21:18:41.453Z,3.10
2022-12-05T21:21:17.920Z,3.10
2022-12-05T21:23:47.070Z,3.10
2022-12-05T21:26:19.681Z,3.10
2022-12-05T21:28:46.718Z,3.10
2022-12-05T21:31:16.173Z,3.10
2022-12-05T21:33:47.580Z,3.10
2022-12-05T21:36:15.304Z,3.20
2022-12-05T21:38:42.131Z,3.10
2022-12-05T21:41:08.971Z,3.10
2022-12-05T21:43:36.744Z,3.10
2022-12-05T21:46:04.859Z,3.00
2022-12-05T21:48:32.676Z,3.00
2022-12-05T21:50:59.621Z,3.00
2022-12-05T21:53:26.421Z,3.00
2022-12-05T21:56:11.000Z,3.10
2022-12-05T21:58:42.501Z,3.00
2022-12-05T22:01:11.146Z,3.00
2022-12-05T22:03:38.588Z,3.10
2022-12-05T22:06:08.407Z,3.10
2022-12-05T22:08:36.449Z,3.10
2022-12-05T22:11:15.332Z,3.10
2022-12-05T22:13:42.924Z,3.00
2022-12-05T22:16:10.501Z,3.00
2022-12-05T22:18:37.480Z,3.00
2022-12-05T22:21:21.086Z,3.00
2022-12-05T22:23:48.933Z,3.00
2022-12-05T22:26:22.978Z,3.00
2022-12-05T22:28:51.451Z,3.00
2022-12-05T22:31:19.145Z,3.00
2022-12-05T22:33:49.440Z,3.00
2022-12-05T22:36:19.983Z,3.10
2022-12-05T22:38:47.940Z,3.00
2022-12-05T22:41:17.493Z,3.00
2022-12-05T22:43:46.030Z,2.90
2022-12-05T22:46:15.727Z,2.90
2022-12-05T22:48:43.351Z,2.90
2022-12-05T22:51:10.724Z,2.90
2022-12-05T22:53:38.487Z,2.90
2022-12-05T22:56:08.179Z,2.90
2022-12-05T22:58:35.693Z,2.90
2022-12-05T23:01:17.271Z,2.90
2022-12-05T23:03:48.636Z,2.90
2022-12-05T23:06:18.164Z,2.90
2022-12-05T23:08:49.966Z,2.90
2022-12-05T23:11:21.935Z,2.80
2022-12-05T23:13:49.426Z,2.80
2022-12-05T23:16:22.744Z,2.80
2022-12-05T23:18:51.384Z,2.90
2022-12-05T23:21:25.016Z,2.80
2022-12-05T23:23:54.042Z,2.80
2022-12-05T23:26:23.632Z,2.90
2022-12-05T23:28:50.558Z,2.80
2022-12-05T23:31:17.892Z,2.80
2022-12-05T23:33:46.156Z,2.80
2022-12-05T23:36:14.874Z,2.70
2022-12-05T23:38:43.062Z,2.70
2022-12-05T23:41:14.538Z,2.70
2022-12-05T23:43:42.617Z,2.70
2022-12-05T23:46:10.844Z,2.70
2022-12-05T23:48:38.110Z,2.70
2022-12-05T23:51:11.206Z,2.70
2022-12-05T23:53:40.430Z,2.60
2022-12-05T23:56:11.459Z,2.70
2022-12-05T23:58:38.784Z,2.70
